Time;durP1;ratioP1;P1;durP2;ratioP2;P2;SDS_P1;SDS_P2;PMS_P1;PMS_P2;Temp;Humidity;BMP_temperature;BMP_pressure;BME280_temperature;BME280_humidity;BME280_pressure;Samples;Min_cycle;Max_cycle;Signal;HPM_P1;HPM_P2
2020/12/10 00:00:54;;;;;;;21.87;12.27;;;2.90;86.10;;;;;;5035532;28;20496;-69
2020/12/10 00:03:22;;;;;;;21.83;13.00;;;2.90;86.00;;;;;;5035514;28;20473;-69
2020/12/10 00:05:48;;;;;;;22.43;13.43;;;2.90;86.00;;;;;;5035687;28;20444;-69
2020/12/10 00:08:14;;;;;;;20.23;13.27;;;2.90;86.00;;;;;;5035007;28;20976;-70
2020/12/10 00:10:40;;;;;;;20.50;13.87;;;2.80;86.10;;;;;;5035347;28;20452;-70
2020/12/10 00:13:06;;;;;;;23.33;14.13;;;2.90;86.40;;;;;;5035025;28;20934;-70
2020/12/10 00:15:32;;;;;;;21.23;13.63;;;2.80;86.50;;;;;;5034900;28;20484;-70
2020/12/10 00:17:59;;;;;;;22.43;13.63;;;2.90;86.70;;;;;;5035179;28;20486;-70
2020/12/10 00:20:26;;;;;;;21.00;12.10;;;2.90;86.80;;;;;;5035172;28;20448;-70
2020/12/10 00:22:52;;;;;;;21.50;13.90;;;2.90;86.80;;;;;;5035123;28;20474;-70
2020/12/10 00:25:18;;;;;;;22.27;14.63;;;2.90;86.90;;;;;;5035098;28;20854;-70
2020/12/10 00:27:44;;;;;;;22.60;14.90;;;2.90;86.90;;;;;;5034920;28;20476;-70
2020/12/10 00:30:11;;;;;;;19.07;13.00;;;2.90;86.80;;;;;;5035027;28;20426;-70
2020/12/10 00:32:37;;;;;;;24.20;15.10;;;2.90;86.80;;;;;;5034899;28;20447;-69
2020/12/10 00:35:06;;;;;;;22.83;13.93;;;2.90;86.90;;;;;;5035485;28;20795;-69
2020/12/10 00:37:34;;;;;;;20.97;14.83;;;2.90;87.10;;;;;;5034958;28;20472;-70
2020/12/10 00:40:01;;;;;;;23.13;14.83;;;2.90;87.30;;;;;;5034830;28;20445;-69
2020/12/10 00:42:27;;;;;;;26.50;14.63;;;2.90;87.30;;;;;;5033964;28;20443;-70
2020/12/10 00:44:53;;;;;;;26.23;14.30;;;2.90;87.40;;;;;;5034666;28;20442;-69
2020/12/10 00:47:20;;;;;;;20.47;14.17;;;2.90;87.60;;;;;;5034540;28;20464;-70
2020/12/10 00:49:47;;;;;;;25.13;16.43;;;2.90;87.80;;;;;;5034793;28;20448;-70
2020/12/10 00:52:15;;;;;;;28.97;15.67;;;2.90;87.90;;;;;;5034685;28;20445;-69
2020/12/10 00:54:42;;;;;;;22.60;14.60;;;2.90;88.10;;;;;;5034658;28;20477;-69
2020/12/10 00:57:10;;;;;;;23.80;14.87;;;2.90;88.20;;;;;;5036144;28;20473;-70
2020/12/10 00:59:37;;;;;;;24.30;14.53;;;2.90;88.30;;;;;;5046146;28;20451;-70
2020/12/10 01:02:04;;;;;;;23.23;14.90;;;2.90;88.40;;;;;;5048649;28;20958;-71
2020/12/10 01:04:30;;;;;;;24.33;16.20;;;2.90;88.50;;;;;;5036219;28;20440;-71
2020/12/10 01:06:56;;;;;;;21.80;15.17;;;2.90;88.50;;;;;;5034124;28;20531;-71
2020/12/10 01:09:22;;;;;;;20.87;14.67;;;2.90;88.50;;;;;;5033926;28;20820;-71
2020/12/10 01:11:49;;;;;;;22.50;16.23;;;2.90;88.50;;;;;;5034238;28;20797;-71
2020/12/10 01:14:17;;;;;;;20.27;13.03;;;2.80;88.50;;;;;;5034032;28;20488;-71
2020/12/10 01:16:44;;;;;;;22.67;14.77;;;2.80;88.60;;;;;;5033998;28;20816;-71
2020/12/10 01:19:10;;;;;;;19.67;13.00;;;2.80;88.70;;;;;;5033758;28;20790;-71
2020/12/10 01:21:36;;;;;;;21.40;13.60;;;2.80;88.80;;;;;;5033971;28;20445;-71
2020/12/10 01:24:04;;;;;;;18.10;13.50;;;2.80;88.80;;;;;;5033663;28;20796;-71
2020/12/10 01:26:33;;;;;;;21.50;14.27;;;2.80;89.00;;;;;;5033885;28;20441;-71
2020/12/10 01:29:00;;;;;;;18.73;13.03;;;2.90;89.30;;;;;;5033798;28;20467;-71
2020/12/10 01:31:27;;;;;;;22.40;14.73;;;2.80;89.30;;;;;;5033981;28;20471;-71
2020/12/10 01:33:54;;;;;;;22.10;14.30;;;2.90;89.50;;;;;;5033634;28;21018;-71
2020/12/10 01:36:21;;;;;;;23.77;15.50;;;2.90;89.50;;;;;;5042748;28;20463;-71
2020/12/10 01:38:48;;;;;;;19.90;14.07;;;2.90;89.50;;;;;;5033728;28;20472;-71
2020/12/10 01:41:15;;;;;;;22.77;13.63;;;2.90;89.60;;;;;;5033728;28;20499;-71
2020/12/10 01:43:41;;;;;;;19.47;14.63;;;2.90;89.80;;;;;;5034261;28;20443;-71
2020/12/10 01:46:10;;;;;;;24.17;14.70;;;2.90;89.80;;;;;;5035359;28;20452;-71
2020/12/10 01:48:37;;;;;;;23.83;14.87;;;2.90;89.90;;;;;;5033534;28;20480;-71
2020/12/10 01:51:04;;;;;;;21.93;14.57;;;2.90;90.00;;;;;;5033515;28;20440;-71
2020/12/10 01:53:31;;;;;;;22.27;14.20;;;3.00;90.10;;;;;;5033250;28;20989;-71
2020/12/10 01:55:58;;;;;;;25.17;14.97;;;3.00;90.10;;;;;;5033467;28;20451;-71
2020/12/10 01:58:24;;;;;;;25.73;15.50;;;3.00;90.10;;;;;;5033499;28;20469;-71
2020/12/10 02:00:51;;;;;;;25.13;15.17;;;3.00;90.20;;;;;;5033576;28;20444;-71
2020/12/10 02:03:19;;;;;;;29.63;15.97;;;3.00;90.20;;;;;;5033395;28;20451;-71
2020/12/10 02:05:46;;;;;;;21.27;14.50;;;3.00;90.20;;;;;;5033432;28;20448;-71
2020/12/10 02:08:12;;;;;;;20.30;15.07;;;3.00;90.20;;;;;;5033453;28;20466;-71
2020/12/10 02:10:39;;;;;;;21.50;16.27;;;3.00;90.20;;;;;;5033062;28;20935;-71
2020/12/10 02:13:05;;;;;;;24.67;15.03;;;3.10;90.20;;;;;;5033328;28;20498;-71
2020/12/10 02:15:33;;;;;;;23.00;15.37;;;3.00;90.10;;;;;;5033288;28;20496;-71
2020/12/10 02:18:00;;;;;;;26.67;15.70;;;3.00;90.10;;;;;;5033289;28;20539;-71
2020/12/10 02:20:28;;;;;;;21.80;15.30;;;3.00;90.00;;;;;;5033555;28;20441;-71
2020/12/10 02:23:00;;;;;;;22.73;14.10;;;3.00;89.90;;;;;;5033261;28;20463;-71
2020/12/10 02:25:30;;;;;;;24.43;15.73;;;3.00;89.80;;;;;;5033272;28;20861;-71
2020/12/10 02:27:57;;;;;;;24.60;16.20;;;3.00;89.70;;;;;;5033416;28;20475;-71
2020/12/10 02:30:24;;;;;;;23.33;15.90;;;3.00;89.60;;;;;;5033206;28;20450;-71
2020/12/10 02:32:55;;;;;;;23.60;15.83;;;3.00;89.50;;;;;;5033385;28;20449;-71
2020/12/10 02:35:23;;;;;;;25.93;17.43;;;2.90;89.40;;;;;;5032686;28;20495;-71
2020/12/10 02:37:49;;;;;;;28.10;16.20;;;2.90;89.40;;;;;;5032789;28;20531;-71
2020/12/10 02:40:16;;;;;;;29.40;16.33;;;2.90;89.30;;;;;;5033160;28;20636;-71
2020/12/10 02:42:42;;;;;;;22.70;15.10;;;2.90;89.10;;;;;;5033246;28;20451;-71
2020/12/10 02:45:09;;;;;;;23.63;15.47;;;2.90;89.30;;;;;;5033140;28;20765;-71
2020/12/10 02:47:35;;;;;;;22.70;15.57;;;2.90;89.20;;;;;;5033038;28;20491;-71
2020/12/10 02:50:01;;;;;;;26.97;17.40;;;2.90;89.30;;;;;;5033056;28;20449;-71
2020/12/10 02:52:27;;;;;;;24.40;15.03;;;2.80;89.50;;;;;;5032962;28;20456;-71
2020/12/10 02:54:53;;;;;;;21.70;14.57;;;2.90;89.70;;;;;;5032936;28;20531;-71
2020/12/10 02:57:23;;;;;;;25.00;15.30;;;2.90;89.70;;;;;;5032585;28;20970;-71
2020/12/10 02:59:49;;;;;;;24.60;16.87;;;2.90;89.90;;;;;;5032909;28;20518;-71
2020/12/10 03:02:15;;;;;;;24.87;14.90;;;2.80;90.00;;;;;;5032914;28;20448;-71
2020/12/10 03:04:42;;;;;;;23.33;15.10;;;2.80;90.10;;;;;;5033143;28;20436;-71
2020/12/10 03:07:08;;;;;;;22.47;14.63;;;2.80;90.10;;;;;;5036461;28;20469;-71
2020/12/10 03:09:34;;;;;;;23.23;15.37;;;2.80;90.10;;;;;;5036189;28;20943;-71
2020/12/10 03:12:00;;;;;;;22.73;14.40;;;2.90;90.20;;;;;;5036468;28;20444;-71
2020/12/10 03:14:27;;;;;;;24.87;16.20;;;2.80;90.20;;;;;;5036322;28;20471;-71
2020/12/10 03:16:54;;;;;;;28.67;15.77;;;2.80;90.30;;;;;;5036138;28;20930;-71
2020/12/10 03:19:20;;;;;;;23.30;15.60;;;2.90;90.40;;;;;;5036362;28;20440;-71
2020/12/10 03:21:46;;;;;;;28.33;16.80;;;2.90;90.30;;;;;;5036239;28;20444;-71
2020/12/10 03:24:12;;;;;;;27.53;16.67;;;2.90;90.40;;;;;;5036210;28;20439;-71
2020/12/10 03:26:38;;;;;;;30.97;16.60;;;2.80;90.50;;;;;;5036186;28;20444;-71
2020/12/10 03:29:07;;;;;;;28.27;16.60;;;2.80;90.50;;;;;;5036159;28;20523;-71
2020/12/10 03:31:35;;;;;;;22.60;15.57;;;2.90;90.50;;;;;;5035765;28;20961;-71
2020/12/10 03:34:01;;;;;;;23.80;15.03;;;2.90;90.40;;;;;;5035958;28;20931;-71
2020/12/10 03:36:27;;;;;;;26.00;17.53;;;2.90;90.80;;;;;;5035615;28;20971;-71
2020/12/10 03:38:53;;;;;;;24.50;16.10;;;2.90;90.40;;;;;;5035979;28;20472;-71
2020/12/10 03:41:19;;;;;;;23.13;14.70;;;2.90;90.40;;;;;;5035879;28;20439;-71
2020/12/10 03:43:46;;;;;;;25.73;16.43;;;3.00;90.40;;;;;;5036161;28;20445;-71
2020/12/10 03:46:12;;;;;;;23.60;15.13;;;3.00;90.40;;;;;;5035768;28;20520;-71
2020/12/10 03:48:39;;;;;;;23.73;15.43;;;3.00;90.20;;;;;;5035718;28;20470;-71
2020/12/10 03:51:05;;;;;;;22.90;15.10;;;3.00;90.20;;;;;;5035727;28;20444;-71
2020/12/10 03:53:31;;;;;;;22.57;14.43;;;3.00;90.20;;;;;;5035631;28;20443;-71
2020/12/10 03:55:57;;;;;;;26.27;16.30;;;3.00;90.10;;;;;;5035590;28;20480;-71
2020/12/10 03:58:24;;;;;;;22.23;14.90;;;3.00;90.10;;;;;;5035770;28;20471;-71
2020/12/10 04:00:50;;;;;;;26.07;16.13;;;3.00;90.00;;;;;;5035413;28;20963;-71
2020/12/10 04:03:16;;;;;;;24.47;16.30;;;3.00;90.00;;;;;;5035564;28;20451;-71
2020/12/10 04:05:43;;;;;;;26.03;15.80;;;3.00;89.70;;;;;;5035492;28;20437;-71
2020/12/10 04:08:09;;;;;;;27.57;16.40;;;2.90;89.60;;;;;;5035020;28;20472;-71
2020/12/10 04:10:35;;;;;;;24.73;16.43;;;3.00;89.70;;;;;;5035415;28;20457;-71
2020/12/10 04:13:01;;;;;;;23.60;15.67;;;2.90;89.30;;;;;;5035302;28;20446;-71
2020/12/10 04:15:28;;;;;;;25.13;14.60;;;2.90;89.00;;;;;;5036048;28;20855;-71
2020/12/10 04:17:54;;;;;;;29.07;15.47;;;2.90;89.00;;;;;;5034336;28;20470;-71
2020/12/10 04:20:20;;;;;;;26.87;16.13;;;2.90;89.00;;;;;;5035239;28;20444;-71
2020/12/10 04:22:47;;;;;;;23.10;15.60;;;2.80;88.90;;;;;;5035375;28;20441;-71
2020/12/10 04:25:13;;;;;;;26.40;16.63;;;2.80;89.10;;;;;;5042225;28;20444;-71
2020/12/10 04:27:39;;;;;;;21.97;14.80;;;2.80;89.10;;;;;;5036221;28;20472;-71
2020/12/10 04:30:05;;;;;;;23.93;15.50;;;2.80;89.10;;;;;;5034976;28;20798;-71
2020/12/10 04:32:32;;;;;;;22.73;15.53;;;2.80;89.00;;;;;;5035308;28;20444;-71
2020/12/10 04:34:58;;;;;;;23.13;16.93;;;2.80;89.10;;;;;;5034836;28;21013;-71
2020/12/10 04:37:24;;;;;;;24.20;15.60;;;2.80;89.10;;;;;;5034859;28;20461;-71
2020/12/10 04:39:51;;;;;;;27.00;15.60;;;2.70;89.00;;;;;;5035147;28;20440;-71
2020/12/10 04:42:18;;;;;;;26.70;16.13;;;2.70;89.20;;;;;;5034677;28;20447;-71
2020/12/10 04:44:46;;;;;;;26.47;16.90;;;2.70;89.10;;;;;;5034719;28;20446;-71
2020/12/10 04:47:13;;;;;;;28.03;16.00;;;2.70;89.10;;;;;;5034584;28;20460;-71
2020/12/10 04:49:40;;;;;;;25.30;16.50;;;2.70;89.10;;;;;;5034632;28;20452;-71
2020/12/10 04:52:07;;;;;;;23.63;15.80;;;2.70;89.10;;;;;;5034634;28;20440;-71
2020/12/10 04:54:34;;;;;;;22.53;14.23;;;2.70;89.00;;;;;;5034459;28;20484;-71
2020/12/10 04:57:02;;;;;;;27.70;17.20;;;2.70;89.00;;;;;;5034404;28;20476;-71
2020/12/10 04:59:28;;;;;;;24.47;15.90;;;2.70;89.00;;;;;;5034448;28;20445;-71
2020/12/10 05:01:55;;;;;;;25.77;15.97;;;2.70;89.10;;;;;;5034350;28;20444;-71
2020/12/10 05:04:22;;;;;;;26.20;17.70;;;2.70;89.00;;;;;;5034314;28;20506;-71
2020/12/10 05:06:51;;;;;;;23.97;16.23;;;2.70;89.10;;;;;;5034228;28;20483;-71
2020/12/10 05:09:18;;;;;;;23.77;15.53;;;2.70;89.00;;;;;;5034251;28;20437;-71
2020/12/10 05:11:44;;;;;;;26.00;17.00;;;2.70;89.00;;;;;;5034189;28;20440;-71
2020/12/10 05:14:11;;;;;;;25.30;16.07;;;2.70;89.00;;;;;;5034136;28;20481;-71
2020/12/10 05:16:37;;;;;;;26.63;17.13;;;2.60;88.90;;;;;;5033812;28;20470;-71
2020/12/10 05:19:20;;;;;;;25.47;15.53;;;2.60;88.80;;;;;;5034286;28;20440;-71
2020/12/10 05:22:01;;;;;;;24.73;16.27;;;2.60;88.90;;;;;;5034108;28;20456;-71
2020/12/10 05:24:28;;;;;;;27.63;17.03;;;2.60;88.90;;;;;;5036918;28;20420;-71
2020/12/10 05:27:19;;;;;;;28.53;17.03;;;2.60;88.80;;;;;;5034010;28;20481;-71
2020/12/10 05:29:47;;;;;;;28.73;16.37;;;2.60;88.90;;;;;;5033908;28;20436;-71
2020/12/10 05:32:41;;;;;;;25.00;17.80;;;2.60;88.90;;;;;;5033640;28;20925;-71
2020/12/10 05:35:20;;;;;;;26.70;17.00;;;2.60;89.00;;;;;;4998686;28;20990;-71
2020/12/10 05:37:47;;;;;;;31.43;17.83;;;2.50;89.00;;;;;;5033890;28;20568;-71
2020/12/10 05:40:13;;;;;;;26.73;16.07;;;2.50;89.20;;;;;;5033848;28;20942;-71
2020/12/10 05:42:41;;;;;;;28.10;17.00;;;2.50;89.30;;;;;;5033684;28;20448;-71
2020/12/10 05:45:13;;;;;;;26.60;16.77;;;2.50;89.50;;;;;;5033613;28;20431;-71
2020/12/10 05:47:41;;;;;;;25.67;16.87;;;2.50;89.50;;;;;;5033827;28;20479;-71
2020/12/10 05:50:08;;;;;;;30.00;17.10;;;2.50;89.50;;;;;;5033368;28;20929;-71
2020/12/10 05:52:37;;;;;;;28.03;16.83;;;2.50;89.50;;;;;;5033586;28;20450;-71
2020/12/10 05:55:03;;;;;;;27.30;18.60;;;2.50;89.70;;;;;;5033526;28;20519;-71
2020/12/10 05:57:30;;;;;;;29.07;19.47;;;2.50;89.70;;;;;;5033438;28;20487;-71
2020/12/10 05:59:57;;;;;;;30.50;19.80;;;2.50;89.80;;;;;;5033546;28;20547;-71
2020/12/10 06:02:25;;;;;;;28.40;17.37;;;2.50;89.80;;;;;;5033648;28;20438;-71
2020/12/10 06:04:53;;;;;;;29.67;17.37;;;2.50;89.80;;;;;;5033381;28;20858;-71
2020/12/10 06:07:19;;;;;;;25.10;16.50;;;2.50;89.80;;;;;;5033620;28;20460;-71
2020/12/10 06:09:45;;;;;;;31.40;19.17;;;2.50;89.80;;;;;;5033518;28;20439;-71
2020/12/10 06:12:12;;;;;;;28.00;18.43;;;2.50;89.80;;;;;;5033568;28;20445;-71
2020/12/10 06:14:50;;;;;;;26.37;17.60;;;2.50;89.90;;;;;;5033449;28;20504;-71
2020/12/10 06:17:17;;;;;;;31.50;18.30;;;2.50;89.90;;;;;;5033177;28;20987;-71
2020/12/10 06:19:44;;;;;;;27.07;18.13;;;2.50;89.90;;;;;;5033364;28;20498;-71
2020/12/10 06:22:27;;;;;;;27.63;18.67;;;2.50;89.80;;;;;;5033394;28;20455;-71
2020/12/10 06:24:54;;;;;;;30.13;19.20;;;2.50;89.80;;;;;;5033366;28;20420;-71
2020/12/10 06:27:28;;;;;;;28.90;18.47;;;2.50;89.70;;;;;;5033511;28;20461;-71
2020/12/10 06:30:11;;;;;;;28.10;16.93;;;2.50;89.60;;;;;;5033431;28;20425;-71
2020/12/10 06:32:42;;;;;;;28.97;17.97;;;2.50;89.60;;;;;;5033168;28;21003;-72
2020/12/10 06:35:25;;;;;;;28.83;18.83;;;2.50;89.60;;;;;;5032958;28;20484;-72
2020/12/10 06:37:51;;;;;;;31.37;20.00;;;2.50;89.60;;;;;;5033437;28;20868;-72
2020/12/10 06:40:29;;;;;;;28.20;19.00;;;2.50;89.50;;;;;;5034129;28;20452;-72
2020/12/10 06:42:55;;;;;;;29.17;19.53;;;2.50;89.50;;;;;;5037371;28;20441;-72
2020/12/10 06:45:26;;;;;;;30.70;18.23;;;2.50;89.60;;;;;;5037318;28;20443;-72
2020/12/10 06:47:52;;;;;;;34.03;19.63;;;2.50;89.60;;;;;;5036697;28;20455;-72
2020/12/10 06:50:23;;;;;;;29.33;19.70;;;2.50;89.50;;;;;;5036723;28;20434;-72
2020/12/10 06:53:13;;;;;;;30.87;19.43;;;2.50;89.50;;;;;;5037115;28;20440;-71
2020/12/10 06:56:16;;;;;;;31.10;20.47;;;2.50;89.60;;;;;;5037284;28;20466;-71
2020/12/10 06:58:51;;;;;;;29.10;18.50;;;2.50;89.60;;;;;;5037049;28;20460;-71
2020/12/10 07:01:21;;;;;;;28.87;19.13;;;2.40;89.60;;;;;;5037130;28;20447;-71
2020/12/10 07:03:48;;;;;;;34.90;19.43;;;2.40;89.70;;;;;;5036953;28;20453;-71
2020/12/10 07:06:18;;;;;;;29.70;18.97;;;2.40;89.70;;;;;;5036893;28;20839;-71
2020/12/10 07:09:03;;;;;;;29.23;19.03;;;2.40;89.70;;;;;;5036477;28;20966;-71
2020/12/10 07:11:31;;;;;;;30.70;18.50;;;2.50;89.90;;;;;;5036788;28;20791;-72
2020/12/10 07:13:58;;;;;;;30.13;18.43;;;2.40;89.70;;;;;;5036570;28;20483;-72
2020/12/10 07:16:29;;;;;;;30.50;19.20;;;2.40;89.70;;;;;;5036745;28;20525;-72
2020/12/10 07:18:56;;;;;;;33.60;20.43;;;2.40;89.70;;;;;;5036698;28;20464;-72
2020/12/10 07:21:22;;;;;;;32.50;20.23;;;2.40;89.70;;;;;;5036613;28;20451;-72
2020/12/10 07:23:49;;;;;;;30.87;19.77;;;2.40;89.60;;;;;;5036535;28;20491;-72
2020/12/10 07:26:16;;;;;;;35.10;21.20;;;2.40;89.50;;;;;;5036401;28;20807;-72
2020/12/10 07:28:43;;;;;;;28.20;17.03;;;2.40;89.40;;;;;;5036251;28;20489;-72
2020/12/10 07:31:14;;;;;;;26.53;18.67;;;2.40;89.50;;;;;;5036509;28;20447;-72
2020/12/10 07:33:41;;;;;;;35.13;20.80;;;2.40;89.60;;;;;;5036392;28;20426;-72
2020/12/10 07:36:08;;;;;;;29.63;19.93;;;2.40;89.70;;;;;;5035932;28;20494;-72
2020/12/10 07:38:34;;;;;;;29.37;18.50;;;2.40;89.70;;;;;;5036463;28;20467;-72
2020/12/10 07:41:00;;;;;;;33.63;21.07;;;2.40;89.90;;;;;;5035879;28;20448;-71
2020/12/10 07:43:28;;;;;;;32.63;20.50;;;2.40;90.00;;;;;;5035994;28;20820;-72
2020/12/10 07:45:54;;;;;;;32.37;19.60;;;2.40;90.00;;;;;;5037181;28;20446;-72
2020/12/10 07:48:21;;;;;;;31.13;19.27;;;2.40;89.90;;;;;;5036973;28;20478;-72
2020/12/10 07:50:48;;;;;;;28.60;18.83;;;2.40;89.80;;;;;;5037032;28;20866;-72
2020/12/10 07:53:14;;;;;;;32.23;19.50;;;2.40;89.80;;;;;;5037662;28;20432;-72
2020/12/10 07:55:50;;;;;;;34.43;20.33;;;2.50;89.80;;;;;;5035867;28;20470;-71
2020/12/10 07:58:23;;;;;;;28.03;18.43;;;2.50;89.60;;;;;;5035975;28;20973;-71
2020/12/10 08:00:52;;;;;;;31.17;20.57;;;2.50;89.50;;;;;;5035996;28;20455;-72
2020/12/10 08:03:26;;;;;;;31.77;19.70;;;2.50;89.40;;;;;;5036066;28;20467;-72
2020/12/10 08:06:04;;;;;;;29.77;19.47;;;2.50;89.30;;;;;;5035966;28;20475;-72
2020/12/10 08:08:38;;;;;;;32.13;20.40;;;2.50;89.20;;;;;;5039222;28;20482;-73
2020/12/10 08:11:13;;;;;;;33.10;21.13;;;2.50;89.00;;;;;;5038152;28;20438;-72
2020/12/10 08:13:59;;;;;;;34.73;21.67;;;2.50;89.00;;;;;;5037624;28;20486;-73
2020/12/10 08:16:39;;;;;;;33.33;19.90;;;2.60;88.90;;;;;;5037884;28;20515;-72
2020/12/10 08:19:19;;;;;;;35.63;20.40;;;2.60;88.80;;;;;;5037876;28;20455;-73
2020/12/10 08:21:47;;;;;;;30.50;20.70;;;2.60;88.80;;;;;;5035915;28;20919;-73
2020/12/10 08:24:14;;;;;;;34.80;22.00;;;2.60;88.70;;;;;;5034931;28;20455;-73
2020/12/10 08:26:41;;;;;;;36.17;22.17;;;2.60;88.70;;;;;;5035588;28;20476;-73
2020/12/10 08:29:07;;;;;;;33.93;21.17;;;2.60;88.90;;;;;;5036547;28;20878;-73
2020/12/10 08:31:34;;;;;;;37.30;22.30;;;2.60;89.00;;;;;;5036614;28;20435;-72
2020/12/10 08:34:01;;;;;;;34.30;21.13;;;2.60;89.00;;;;;;5036076;28;20450;-72
2020/12/10 08:36:30;;;;;;;31.80;21.63;;;2.60;89.20;;;;;;5034999;28;20601;-72
2020/12/10 08:39:00;;;;;;;35.50;21.50;;;2.60;89.20;;;;;;5035355;28;20996;-73
2020/12/10 08:41:29;;;;;;;26.67;18.70;;;2.60;89.30;;;;;;5035364;28;20483;-73
2020/12/10 08:43:57;;;;;;;31.53;19.80;;;2.70;89.50;;;;;;5035094;28;20456;-73
2020/12/10 08:46:24;;;;;;;29.90;19.97;;;2.70;89.50;;;;;;5034997;28;20441;-73
2020/12/10 08:48:52;;;;;;;31.30;19.03;;;2.70;89.50;;;;;;5036177;28;20988;-73
2020/12/10 08:51:19;;;;;;;31.50;20.10;;;2.80;89.70;;;;;;5036601;28;20439;-73
2020/12/10 08:53:46;;;;;;;27.60;18.27;;;2.80;89.60;;;;;;5034814;28;20447;-73
2020/12/10 08:56:19;;;;;;;28.37;18.17;;;2.80;89.60;;;;;;5034932;28;20484;-73
2020/12/10 08:58:45;;;;;;;27.23;17.47;;;2.80;89.60;;;;;;5034882;28;20504;-73
2020/12/10 09:01:12;;;;;;;27.43;17.13;;;2.80;89.70;;;;;;5034730;28;20966;-73
2020/12/10 09:03:38;;;;;;;31.00;18.60;;;2.90;89.80;;;;;;5034197;28;20429;-73
2020/12/10 09:06:05;;;;;;;30.27;17.70;;;2.90;89.80;;;;;;5034736;28;20423;-73
2020/12/10 09:08:31;;;;;;;23.20;15.87;;;2.90;89.80;;;;;;5035370;28;20464;-72
2020/12/10 09:10:57;;;;;;;25.30;17.00;;;3.00;89.90;;;;;;5034164;28;20972;-72
2020/12/10 09:13:24;;;;;;;29.03;17.57;;;3.00;89.80;;;;;;5034661;28;20446;-73
2020/12/10 09:15:50;;;;;;;23.80;15.60;;;3.00;89.70;;;;;;5034967;28;20569;-73
2020/12/10 09:18:17;;;;;;;26.20;17.13;;;3.10;89.70;;;;;;5037770;28;20469;-73
2020/12/10 09:20:43;;;;;;;23.40;15.43;;;3.00;89.60;;;;;;5034908;28;20441;-73
2020/12/10 09:23:11;;;;;;;27.07;16.73;;;3.10;89.90;;;;;;5034588;28;20520;-73
2020/12/10 09:25:37;;;;;;;22.93;15.33;;;3.10;90.00;;;;;;5034801;28;20446;-72
2020/12/10 09:28:04;;;;;;;25.73;16.43;;;3.10;90.00;;;;;;5035319;28;20467;-71
2020/12/10 09:30:30;;;;;;;22.27;15.10;;;3.20;90.00;;;;;;5036295;28;20453;-74
2020/12/10 09:32:57;;;;;;;26.03;16.17;;;3.20;90.00;;;;;;5035680;28;20421;-71
2020/12/10 09:35:23;;;;;;;22.60;14.90;;;3.30;90.00;;;;;;5035057;28;20489;-72
2020/12/10 09:37:49;;;;;;;25.23;15.47;;;3.30;89.90;;;;;;5034593;28;20468;-73
2020/12/10 09:40:16;;;;;;;23.77;14.70;;;3.40;89.80;;;;;;5034843;28;20433;-72
2020/12/10 09:42:44;;;;;;;25.37;16.33;;;3.40;89.60;;;;;;5035551;28;20449;-73
2020/12/10 09:45:11;;;;;;;24.30;15.63;;;3.50;89.60;;;;;;5035213;28;20445;-72
2020/12/10 09:47:37;;;;;;;26.17;16.47;;;3.50;89.40;;;;;;5034192;28;20883;-73
2020/12/10 09:50:06;;;;;;;23.70;15.87;;;3.50;89.20;;;;;;5034422;28;20442;-72
2020/12/10 09:52:35;;;;;;;25.77;17.50;;;3.60;89.30;;;;;;5034928;28;20511;-74
2020/12/10 09:55:07;;;;;;;25.80;15.27;;;3.70;89.30;;;;;;5034063;28;20513;-71
2020/12/10 09:57:35;;;;;;;32.40;18.40;;;3.70;89.10;;;;;;5034198;28;20469;-72
2020/12/10 10:00:05;;;;;;;23.90;15.00;;;3.80;89.50;;;;;;5033835;28;20429;-73
2020/12/10 10:02:31;;;;;;;23.57;15.93;;;3.90;89.50;;;;;;5033685;28;20442;-74
2020/12/10 10:04:57;;;;;;;23.90;15.33;;;3.90;89.00;;;;;;5033787;28;20422;-72
2020/12/10 10:07:23;;;;;;;24.50;16.90;;;4.00;88.80;;;;;;5033550;28;20480;-73
2020/12/10 10:09:50;;;;;;;25.50;15.77;;;4.10;88.60;;;;;;5033397;28;20900;-72
2020/12/10 10:12:16;;;;;;;19.23;15.60;;;4.20;88.40;;;;;;5033583;28;20478;-72
2020/12/10 10:14:43;;;;;;;26.10;15.60;;;4.30;88.20;;;;;;5033917;28;20426;-72
2020/12/10 10:17:10;;;;;;;18.97;13.57;;;4.40;87.90;;;;;;5037828;28;20469;-72
2020/12/10 10:19:37;;;;;;;23.83;14.97;;;4.50;87.60;;;;;;5038244;28;20449;-72
2020/12/10 10:22:04;;;;;;;20.10;13.97;;;4.60;87.20;;;;;;5037751;28;20791;-72
2020/12/10 10:24:32;;;;;;;22.50;14.87;;;4.70;86.90;;;;;;5038285;28;20772;-72
2020/12/10 10:26:58;;;;;;;22.27;13.80;;;4.70;85.70;;;;;;5037924;28;20431;-72
2020/12/10 10:29:24;;;;;;;21.80;14.13;;;4.80;85.40;;;;;;5037914;28;20450;-73
2020/12/10 10:31:52;;;;;;;20.17;13.53;;;4.90;85.40;;;;;;5037645;28;20461;-73
2020/12/10 10:34:19;;;;;;;23.57;14.20;;;4.90;86.00;;;;;;5038333;28;20442;-73
2020/12/10 10:36:48;;;;;;;16.80;12.40;;;5.00;85.20;;;;;;5037306;28;20486;-72
2020/12/10 10:39:14;;;;;;;21.10;13.37;;;5.00;84.90;;;;;;5037453;28;20449;-73
2020/12/10 10:41:41;;;;;;;21.63;14.17;;;5.00;84.60;;;;;;5036943;28;20928;-73
2020/12/10 10:44:08;;;;;;;19.33;13.90;;;5.00;84.40;;;;;;5037439;28;20441;-73
2020/12/10 10:46:34;;;;;;;19.17;13.10;;;5.00;84.30;;;;;;5037242;28;20426;-73
2020/12/10 10:49:01;;;;;;;21.30;14.27;;;5.00;84.10;;;;;;5037178;28;20854;-73
2020/12/10 10:51:27;;;;;;;26.43;14.60;;;5.00;83.80;;;;;;5037698;28;20795;-73
2020/12/10 10:53:53;;;;;;;21.07;13.40;;;5.00;83.30;;;;;;5037090;28;20760;-73
2020/12/10 10:56:21;;;;;;;18.97;12.93;;;5.00;83.50;;;;;;5037036;28;20486;-73
2020/12/10 10:58:47;;;;;;;22.40;15.83;;;5.00;83.90;;;;;;5037166;28;20458;-73
2020/12/10 11:01:13;;;;;;;23.70;15.57;;;5.00;84.10;;;;;;5037197;28;20841;-73
2020/12/10 11:03:41;;;;;;;21.40;14.37;;;5.00;84.10;;;;;;5036997;28;20451;-73
2020/12/10 11:06:08;;;;;;;22.13;14.30;;;5.00;84.00;;;;;;5037012;28;20444;-73
2020/12/10 11:08:34;;;;;;;24.27;15.27;;;5.00;83.90;;;;;;5036846;28;20454;-74
2020/12/10 11:11:00;;;;;;;20.03;13.60;;;5.00;83.90;;;;;;5036714;28;20438;-73
2020/12/10 11:13:27;;;;;;;19.63;12.87;;;4.80;83.50;;;;;;5036589;28;20446;-73
2020/12/10 11:15:53;;;;;;;21.30;14.47;;;4.80;83.90;;;;;;5036474;28;20542;-72
2020/12/10 11:18:19;;;;;;;19.93;14.80;;;4.80;84.20;;;;;;5036532;28;20458;-73
2020/12/10 11:20:45;;;;;;;19.73;13.93;;;4.90;84.50;;;;;;5036411;28;20438;-73
2020/12/10 11:23:13;;;;;;;18.23;12.50;;;4.90;84.80;;;;;;5036381;28;20453;-73
2020/12/10 11:25:40;;;;;;;18.20;13.60;;;4.90;85.00;;;;;;5036323;28;20446;-73
2020/12/10 11:28:06;;;;;;;16.97;12.87;;;4.90;85.10;;;;;;5036514;28;20503;-73
2020/12/10 11:30:33;;;;;;;20.80;14.13;;;5.00;85.20;;;;;;5036553;28;20433;-73
2020/12/10 11:32:59;;;;;;;19.57;13.57;;;5.00;85.10;;;;;;5036421;28;20945;-73
2020/12/10 11:35:25;;;;;;;20.70;14.20;;;5.00;85.10;;;;;;5036203;28;20494;-73
2020/12/10 11:37:55;;;;;;;17.20;13.20;;;5.00;85.00;;;;;;5036457;28;20972;-73
2020/12/10 11:40:23;;;;;;;16.80;12.00;;;5.10;85.10;;;;;;5037729;28;20565;-73
2020/12/10 11:42:50;;;;;;;19.03;13.10;;;5.00;85.00;;;;;;5037137;28;20461;-74
2020/12/10 11:45:17;;;;;;;17.40;13.30;;;5.00;85.10;;;;;;5037008;28;20439;-73
2020/12/10 11:47:43;;;;;;;18.57;14.00;;;5.00;84.90;;;;;;5036514;28;20466;-73
2020/12/10 11:50:09;;;;;;;18.37;12.60;;;5.00;84.60;;;;;;5036953;28;21019;-73
2020/12/10 11:52:45;;;;;;;21.43;13.90;;;5.00;84.50;;;;;;5037010;28;20438;-74
2020/12/10 11:55:11;;;;;;;17.57;12.67;;;5.00;84.70;;;;;;5036620;28;20839;-73
2020/12/10 11:57:38;;;;;;;20.80;13.50;;;5.00;84.90;;;;;;5036570;28;20508;-73
2020/12/10 12:00:05;;;;;;;20.07;14.40;;;5.00;85.00;;;;;;5036086;28;20844;-74
2020/12/10 12:02:32;;;;;;;20.30;14.73;;;5.00;85.20;;;;;;5035826;28;20479;-74
2020/12/10 12:04:58;;;;;;;17.70;13.33;;;5.00;85.20;;;;;;5035841;28;20428;-73
2020/12/10 12:07:24;;;;;;;17.27;12.80;;;5.00;85.10;;;;;;5036485;28;20987;-74
2020/12/10 12:09:50;;;;;;;14.40;11.47;;;5.10;85.00;;;;;;5035800;28;20791;-74
2020/12/10 12:12:16;;;;;;;17.90;12.13;;;5.00;84.50;;;;;;5035676;28;20427;-74
2020/12/10 12:14:44;;;;;;;16.60;12.73;;;5.00;84.30;;;;;;5035574;28;20450;-74
2020/12/10 12:17:10;;;;;;;21.07;12.73;;;5.00;84.20;;;;;;5035283;28;20486;-73
2020/12/10 12:19:36;;;;;;;18.57;13.50;;;4.90;84.50;;;;;;5036397;28;20450;-74
2020/12/10 12:22:03;;;;;;;17.87;13.03;;;5.00;84.70;;;;;;5035285;28;20427;-74
2020/12/10 12:24:29;;;;;;;17.83;11.50;;;5.00;84.90;;;;;;5035176;28;20446;-74
2020/12/10 12:26:55;;;;;;;22.23;13.43;;;5.00;85.10;;;;;;5034842;28;20921;-73
2020/12/10 12:29:22;;;;;;;19.67;13.77;;;5.00;85.20;;;;;;5035171;28;20423;-73
2020/12/10 12:31:49;;;;;;;16.70;11.77;;;5.00;84.90;;;;;;5035926;28;20439;-73
2020/12/10 12:34:15;;;;;;;18.07;13.40;;;5.00;84.80;;;;;;5035195;28;20431;-73
2020/12/10 12:36:42;;;;;;;18.33;12.67;;;5.00;84.60;;;;;;5034637;28;21014;-73
2020/12/10 12:39:13;;;;;;;21.90;14.20;;;5.00;84.80;;;;;;5034140;28;20435;-73